Yorkana, Pennsylvania
Current Conditions -  °F | °C
As of 1:56 AM on Sunday 23 Nov 2014 (Local Time) from KMDT Reporting Station
Broken Clouds Broken Clouds  
Wind Chill:   Ceiling: 12000
Heat Index:   Visibility: 10mi
Dew Point: -7°   Wind: 7mph
Humidity: 50%   Direction: 90°E
Pressure: 30.18"   Gusts: NA
Location:  40.0152°N, 76.5974°W
Report Text: KMDT 230656Z 09006KT 10SM BKN120 03/M07 A3018 RMK AO2 SLP222 T00281067
Loading
Personal Weather Stations






























Interactive Weather Map New forecast layout! Learn more

10-Day Weather Forecast

Advertisements
Track Severe Weather on mobile